Tipton, Tennessee
Current Conditions -  °F | °C
As of 6:50 AM on Friday 24 Oct 2014 (Local Time) from KNQA Reporting Station
Haze Haze  
Wind Chill: 43°   Ceiling: Unl
Heat Index: 43°   Visibility: 4mi
Dew Point: 43°   Wind: 0mph
Humidity: 100%   Direction: NA
Pressure: 30.15"   Gusts: NA
Location:  35.41°N, 89.82°W
Report Text: KNQA 241150Z 00000KT 4SM BR SKC 06/06 A3015
Loading
Personal Weather Stations






























Interactive Weather Map
Tropical Storm Tracking
New forecast layout! Learn more

10-Day Weather Forecast

Advertisements
Track Severe Weather on mobile